Time;durP1;ratioP1;P1;durP2;ratioP2;P2;SDS_P1;SDS_P2;PMS_P1;PMS_P2;Temp;Humidity;BMP_temperature;BMP_pressure;BME280_temperature;BME280_humidity;BME280_pressure;Samples;Min_cycle;Max_cycle;Signal;HPM_P1;HPM_P2
2021/06/07 00:00:28;;;;;;;2.25;1.40;;;25.50;52.40;;;;;;5059336;28;20033;-65
2021/06/07 00:02:55;;;;;;;1.77;1.30;;;25.50;52.30;;;;;;5068754;28;20047;-66
2021/06/07 00:05:22;;;;;;;2.65;1.55;;;25.50;52.90;;;;;;5052782;28;20059;-66
2021/06/07 00:07:47;;;;;;;2.70;1.38;;;25.50;52.30;;;;;;5065801;28;20032;-65
2021/06/07 00:10:14;;;;;;;2.20;1.30;;;25.50;52.30;;;;;;5060849;28;20116;-66
2021/06/07 00:12:40;;;;;;;3.75;1.73;;;25.50;52.30;;;;;;5069248;28;20032;-66
2021/06/07 00:15:10;;;;;;;1.80;1.30;;;25.50;52.80;;;;;;5062388;28;20032;-68
2021/06/07 00:17:37;;;;;;;1.92;1.20;;;25.50;52.40;;;;;;5051872;28;20077;-65
2021/06/07 00:20:08;;;;;;;1.60;1.30;;;25.50;52.40;;;;;;5053802;28;20656;-66
2021/06/07 00:22:34;;;;;;;2.08;1.40;;;25.50;52.30;;;;;;5068717;28;20090;-65
2021/06/07 00:24:59;;;;;;;2.80;1.70;;;25.40;52.30;;;;;;5061568;28;20036;-65
2021/06/07 00:27:25;;;;;;;2.40;1.50;;;25.40;52.20;;;;;;5066557;28;20024;-65
2021/06/07 00:29:51;;;;;;;1.90;1.50;;;25.40;52.20;;;;;;5060381;28;20106;-65
2021/06/07 00:32:16;;;;;;;2.15;1.45;;;25.40;52.20;;;;;;5052383;28;20093;-65
2021/06/07 00:34:42;;;;;;;2.17;1.50;;;25.40;52.20;;;;;;5070079;28;20115;-65
2021/06/07 00:37:08;;;;;;;1.77;1.52;;;25.40;52.20;;;;;;5055375;28;20670;-65
2021/06/07 00:39:33;;;;;;;2.78;1.58;;;25.40;52.20;;;;;;5067178;28;20028;-65
2021/06/07 00:41:59;;;;;;;2.47;1.30;;;25.40;52.20;;;;;;5051454;28;20095;-65
2021/06/07 00:44:24;;;;;;;2.45;1.40;;;25.40;52.20;;;;;;5059100;28;20020;-65
2021/06/07 00:46:51;;;;;;;2.60;1.45;;;25.40;52.20;;;;;;5050216;28;20033;-67
2021/06/07 00:49:16;;;;;;;2.08;1.48;;;25.40;52.70;;;;;;5069861;28;20514;-67
2021/06/07 00:51:44;;;;;;;2.10;1.50;;;25.40;52.20;;;;;;5063793;28;20033;-67
2021/06/07 00:54:10;;;;;;;2.05;1.42;;;25.40;52.20;;;;;;5065010;28;20442;-67
2021/06/07 00:56:37;;;;;;;2.22;1.35;;;25.40;52.20;;;;;;5062552;28;20029;-67
2021/06/07 00:59:03;;;;;;;2.40;1.40;;;25.40;52.20;;;;;;5068460;28;20443;-67
2021/06/07 01:01:29;;;;;;;2.20;1.50;;;25.40;52.20;;;;;;5054913;28;20178;-67
2021/06/07 01:03:57;;;;;;;2.63;1.50;;;25.40;52.10;;;;;;5051864;28;20132;-67
2021/06/07 01:06:23;;;;;;;2.35;1.50;;;25.40;52.20;;;;;;5065559;28;20055;-66
2021/06/07 01:08:50;;;;;;;1.70;1.30;;;25.30;52.10;;;;;;5067759;28;20059;-66
2021/06/07 01:11:16;;;;;;;2.00;1.40;;;25.40;52.20;;;;;;5062825;28;20053;-65
2021/06/07 01:13:44;;;;;;;2.15;1.60;;;25.30;52.10;;;;;;5069371;28;20104;-65
2021/06/07 01:16:10;;;;;;;2.00;1.45;;;25.30;52.10;;;;;;5056230;28;20048;-65
2021/06/07 01:18:36;;;;;;;1.70;1.40;;;25.30;52.10;;;;;;5063197;28;20021;-65
2021/06/07 01:21:08;;;;;;;2.20;1.23;;;25.30;52.20;;;;;;5057760;28;20365;-65
2021/06/07 01:23:34;;;;;;;2.03;1.33;;;25.30;52.10;;;;;;5056306;28;20123;-66
2021/06/07 01:26:01;;;;;;;2.05;1.38;;;25.30;52.10;;;;;;5057057;28;20036;-65
2021/06/07 01:28:29;;;;;;;2.70;1.40;;;25.30;52.00;;;;;;5050268;28;20040;-66
2021/06/07 01:30:56;;;;;;;2.75;1.33;;;25.30;52.00;;;;;;5048231;28;20044;-66
2021/06/07 01:33:24;;;;;;;2.33;1.40;;;25.30;52.10;;;;;;5050272;28;20376;-66
2021/06/07 01:35:54;;;;;;;1.80;1.30;;;25.30;52.00;;;;;;5051337;28;20029;-65
2021/06/07 01:38:20;;;;;;;2.15;1.48;;;25.30;52.00;;;;;;5065306;28;20585;-65
2021/06/07 01:40:52;;;;;;;2.22;1.42;;;25.30;52.60;;;;;;5057614;28;20047;-66
2021/06/07 01:43:18;;;;;;;1.60;1.20;;;25.30;52.00;;;;;;5050371;28;20036;-66
2021/06/07 01:45:46;;;;;;;3.08;1.40;;;25.30;52.00;;;;;;5054793;28;20048;-65
2021/06/07 01:48:13;;;;;;;1.90;1.30;;;25.30;52.00;;;;;;5054008;28;20040;-66
2021/06/07 01:50:39;;;;;;;2.13;1.48;;;25.30;52.00;;;;;;5067920;28;20471;-66
2021/06/07 01:53:07;;;;;;;2.13;1.50;;;25.20;52.40;;;;;;5069297;28;20578;-66
2021/06/07 01:55:44;;;;;;;1.60;1.20;;;25.20;52.00;;;;;;5067036;28;20028;-66
2021/06/07 01:58:11;;;;;;;1.55;1.20;;;25.20;52.00;;;;;;5064152;28;20033;-66
2021/06/07 02:01:05;;;;;;;1.88;1.30;;;25.20;52.00;;;;;;5059040;28;20033;-65
2021/06/07 02:03:31;;;;;;;1.85;1.27;;;25.20;52.00;;;;;;5055371;28;20147;-65
2021/06/07 02:06:00;;;;;;;2.03;1.30;;;25.20;51.90;;;;;;5051472;28;20064;-65
2021/06/07 02:08:29;;;;;;;2.40;1.33;;;25.20;51.90;;;;;;5052325;28;20483;-65
2021/06/07 02:11:00;;;;;;;1.92;1.30;;;25.20;52.00;;;;;;5057816;28;20143;-65
2021/06/07 02:13:26;;;;;;;2.40;1.40;;;25.20;51.90;;;;;;5049097;28;20048;-65
2021/06/07 02:16:01;;;;;;;1.95;1.30;;;25.20;51.90;;;;;;5049995;28;20770;-65
2021/06/07 02:18:27;;;;;;;1.70;1.25;;;25.20;51.90;;;;;;5051701;28;20020;-65
2021/06/07 02:20:53;;;;;;;1.77;1.23;;;25.20;51.90;;;;;;5053354;28;20021;-65
2021/06/07 02:23:18;;;;;;;2.13;1.30;;;25.20;51.90;;;;;;5056475;28;20048;-65
2021/06/07 02:25:44;;;;;;;1.80;1.33;;;25.20;51.90;;;;;;5068426;28;20035;-66
2021/06/07 02:28:14;;;;;;;2.17;1.30;;;25.20;51.90;;;;;;5068850;28;20028;-66
2021/06/07 02:30:41;;;;;;;1.38;1.17;;;25.10;51.80;;;;;;5065765;28;20041;-66
2021/06/07 02:33:07;;;;;;;1.40;1.20;;;25.20;51.90;;;;;;5049905;28;20087;-66
2021/06/07 02:35:33;;;;;;;2.13;1.30;;;25.20;51.90;;;;;;5047614;28;20021;-66
2021/06/07 02:37:59;;;;;;;1.80;1.40;;;25.20;51.90;;;;;;5054736;28;20025;-66
2021/06/07 02:40:27;;;;;;;1.75;1.10;;;25.10;51.80;;;;;;5060677;28;20046;-66
2021/06/07 02:42:54;;;;;;;1.23;1.10;;;25.10;51.80;;;;;;5052242;28;20033;-66
2021/06/07 02:45:20;;;;;;;1.45;1.25;;;25.10;51.90;;;;;;5048309;28;20435;-65
2021/06/07 02:47:49;;;;;;;1.80;1.33;;;25.20;51.90;;;;;;5047308;28;20151;-66
2021/06/07 02:50:21;;;;;;;2.53;1.27;;;25.10;51.80;;;;;;5062532;28;20028;-66
2021/06/07 02:52:47;;;;;;;2.00;1.17;;;25.10;51.80;;;;;;5047977;28;20796;-66
2021/06/07 02:55:22;;;;;;;1.58;1.30;;;25.10;51.80;;;;;;5054002;28;20108;-66
2021/06/07 02:57:49;;;;;;;1.92;1.38;;;25.10;51.80;;;;;;5056765;28;20055;-65
2021/06/07 03:00:20;;;;;;;1.88;1.30;;;25.10;51.80;;;;;;5062706;28;20033;-66
2021/06/07 03:02:46;;;;;;;2.15;1.35;;;25.10;51.80;;;;;;5052621;28;20031;-66
2021/06/07 03:05:12;;;;;;;1.60;1.13;;;25.10;51.80;;;;;;5054950;28;20475;-66
2021/06/07 03:07:38;;;;;;;1.48;1.23;;;25.10;51.80;;;;;;5047007;28;20024;-66
2021/06/07 03:10:06;;;;;;;1.90;1.30;;;25.10;51.80;;;;;;5055376;28;20025;-66
2021/06/07 03:12:32;;;;;;;1.30;1.10;;;25.10;51.80;;;;;;5055066;28;20037;-66
2021/06/07 03:14:58;;;;;;;1.40;1.20;;;25.10;51.80;;;;;;5049009;28;20029;-66
2021/06/07 03:17:23;;;;;;;2.53;1.40;;;25.10;51.80;;;;;;5066507;28;20156;-65
2021/06/07 03:19:49;;;;;;;1.80;1.30;;;25.10;51.80;;;;;;5048476;28;20033;-65
2021/06/07 03:22:20;;;;;;;2.10;1.42;;;25.10;51.80;;;;;;5062440;28;20806;-65
2021/06/07 03:24:46;;;;;;;1.92;1.25;;;25.10;51.80;;;;;;5061409;28;20034;-66
2021/06/07 03:27:11;;;;;;;2.00;1.40;;;25.10;52.30;;;;;;5056965;28;20036;-66
2021/06/07 03:29:37;;;;;;;1.70;1.30;;;25.10;51.80;;;;;;5062826;28;20024;-66
2021/06/07 03:32:03;;;;;;;1.63;1.27;;;25.10;51.80;;;;;;5045899;28;20056;-66
2021/06/07 03:34:28;;;;;;;2.17;1.35;;;25.10;51.80;;;;;;5066858;28;20056;-66
2021/06/07 03:36:54;;;;;;;1.67;1.20;;;25.00;51.70;;;;;;5044869;28;20484;-66
2021/06/07 03:39:19;;;;;;;1.88;1.30;;;25.00;51.70;;;;;;5045570;28;20125;-66
2021/06/07 03:41:45;;;;;;;1.70;1.20;;;25.00;51.70;;;;;;5055802;28;20340;-66
2021/06/07 03:44:11;;;;;;;1.90;1.20;;;25.10;51.80;;;;;;5052319;28;20044;-66
2021/06/07 03:46:36;;;;;;;2.10;1.50;;;25.00;51.70;;;;;;5044411;28;20652;-66
2021/06/07 03:49:02;;;;;;;1.40;1.10;;;25.00;51.70;;;;;;5046813;28;20426;-66
2021/06/07 03:51:28;;;;;;;1.70;1.35;;;25.00;51.70;;;;;;5069540;28;20118;-66
2021/06/07 03:53:53;;;;;;;2.35;1.40;;;25.00;51.70;;;;;;5053300;28;20037;-66
2021/06/07 03:56:19;;;;;;;1.17;1.08;;;25.00;51.70;;;;;;5059863;28;20041;-66
2021/06/07 03:58:44;;;;;;;1.10;0.98;;;25.00;51.70;;;;;;5057600;28;20024;-65
2021/06/07 04:01:10;;;;;;;1.60;1.17;;;25.00;51.70;;;;;;5056573;28;20108;-66
2021/06/07 04:03:37;;;;;;;1.90;1.20;;;25.00;51.70;;;;;;5053955;28;20025;-66
2021/06/07 04:06:03;;;;;;;1.50;1.10;;;25.00;52.20;;;;;;5046980;28;20037;-66
2021/06/07 04:08:28;;;;;;;1.85;1.30;;;25.00;51.70;;;;;;5059250;28;20134;-66
2021/06/07 04:10:54;;;;;;;1.52;1.27;;;25.00;51.70;;;;;;5055346;28;20031;-66
2021/06/07 04:13:19;;;;;;;1.83;1.20;;;25.00;51.70;;;;;;5054791;28;20069;-65
2021/06/07 04:15:45;;;;;;;1.15;1.02;;;25.00;51.70;;;;;;5047986;28;20136;-66
2021/06/07 04:18:11;;;;;;;1.60;1.20;;;25.00;51.70;;;;;;5052260;28;20033;-65
2021/06/07 04:20:36;;;;;;;1.80;1.20;;;25.00;51.70;;;;;;5054425;28;20060;-67
2021/06/07 04:23:03;;;;;;;1.60;1.27;;;25.00;51.70;;;;;;5054110;28;20098;-66
2021/06/07 04:25:29;;;;;;;1.35;1.20;;;25.00;51.70;;;;;;5061595;28;20086;-65
2021/06/07 04:27:57;;;;;;;1.73;1.38;;;24.90;51.60;;;;;;5051271;28;20137;-64
2021/06/07 04:30:24;;;;;;;2.15;1.35;;;24.90;52.20;;;;;;5046887;28;20045;-64
2021/06/07 04:32:52;;;;;;;1.55;1.20;;;24.90;51.70;;;;;;5047577;28;20569;-66
2021/06/07 04:35:18;;;;;;;1.40;1.20;;;25.00;51.70;;;;;;5063420;28;20039;-65
2021/06/07 04:37:51;;;;;;;1.40;1.10;;;24.90;51.70;;;;;;5058345;28;20056;-64
2021/06/07 04:40:29;;;;;;;1.63;1.20;;;24.90;51.70;;;;;;5067662;28;20111;-64
2021/06/07 04:42:55;;;;;;;1.58;1.20;;;24.90;51.60;;;;;;5054450;28;20792;-63
2021/06/07 04:45:22;;;;;;;1.20;1.02;;;24.90;51.60;;;;;;5061045;28;20098;-64
2021/06/07 04:47:49;;;;;;;1.80;1.10;;;24.90;51.50;;;;;;5064768;28;20028;-64
2021/06/07 04:50:17;;;;;;;1.55;1.20;;;24.90;51.50;;;;;;5061341;28;20053;-64
2021/06/07 04:52:59;;;;;;;1.92;1.13;;;24.90;51.60;;;;;;5049848;28;20498;-64
2021/06/07 04:55:33;;;;;;;1.58;1.15;;;24.90;51.60;;;;;;5051754;28;20060;-65
2021/06/07 04:58:01;;;;;;;1.80;1.20;;;24.90;51.60;;;;;;5062317;28;20020;-63
2021/06/07 05:00:27;;;;;;;1.90;1.20;;;24.90;51.60;;;;;;5062116;28;20037;-63
2021/06/07 05:02:53;;;;;;;2.50;1.55;;;24.90;51.60;;;;;;5049454;28;20040;-63
2021/06/07 05:05:20;;;;;;;1.80;1.33;;;24.90;51.60;;;;;;5061013;28;20475;-63
2021/06/07 05:07:46;;;;;;;1.42;1.10;;;24.90;51.60;;;;;;5054932;28;20059;-63
2021/06/07 05:10:13;;;;;;;1.50;1.20;;;24.90;51.60;;;;;;5060889;28;20032;-63
2021/06/07 05:12:38;;;;;;;2.45;1.30;;;24.90;51.70;;;;;;5055693;28;20033;-63
2021/06/07 05:15:09;;;;;;;1.65;1.33;;;24.90;51.70;;;;;;5064209;28;20084;-63
2021/06/07 05:17:35;;;;;;;2.70;1.70;;;24.90;51.60;;;;;;5051328;28;20108;-63
2021/06/07 05:20:02;;;;;;;1.75;1.10;;;24.80;51.50;;;;;;5051112;28;20147;-63
2021/06/07 05:22:28;;;;;;;2.00;1.50;;;24.90;51.70;;;;;;5060539;28;20024;-63
2021/06/07 05:24:54;;;;;;;2.65;1.70;;;24.90;52.00;;;;;;5069917;28;20034;-63
2021/06/07 05:27:20;;;;;;;2.83;1.70;;;24.90;52.50;;;;;;5065226;28;20332;-63
2021/06/07 05:29:46;;;;;;;3.25;1.90;;;24.90;52.10;;;;;;5069440;28;20025;-63
2021/06/07 05:32:11;;;;;;;3.92;2.30;;;25.00;52.20;;;;;;5060095;28;20488;-63
2021/06/07 05:34:37;;;;;;;3.53;2.25;;;25.00;52.40;;;;;;5054840;28;20029;-63
2021/06/07 05:37:04;;;;;;;3.83;2.60;;;25.00;52.50;;;;;;5066964;28;20043;-63
2021/06/07 05:39:30;;;;;;;4.30;2.60;;;25.00;52.50;;;;;;5069137;28;20524;-63
2021/06/07 05:41:55;;;;;;;3.90;2.90;;;25.00;52.50;;;;;;5066185;28;20021;-63
2021/06/07 05:44:21;;;;;;;4.72;2.90;;;25.10;52.60;;;;;;5050385;28;20082;-63
2021/06/07 05:46:47;;;;;;;5.45;2.92;;;25.10;52.60;;;;;;5057919;28;20424;-63
2021/06/07 05:49:14;;;;;;;4.28;2.72;;;25.10;52.50;;;;;;5060066;28;20430;-63
2021/06/07 05:51:40;;;;;;;6.75;3.28;;;25.10;52.40;;;;;;5058963;28;20045;-63
2021/06/07 05:54:06;;;;;;;5.97;3.50;;;25.10;52.60;;;;;;5049958;28;20102;-63
2021/06/07 05:56:31;;;;;;;5.82;3.42;;;25.20;52.60;;;;;;5057316;28;20099;-62
2021/06/07 05:58:58;;;;;;;5.30;3.20;;;25.20;52.60;;;;;;5064923;28;20103;-63
2021/06/07 06:01:24;;;;;;;5.15;3.42;;;25.20;52.60;;;;;;5050229;28;20039;-62
2021/06/07 06:03:51;;;;;;;5.88;3.92;;;25.20;52.60;;;;;;5048354;28;20511;-62
2021/06/07 06:06:17;;;;;;;4.75;3.20;;;25.20;52.60;;;;;;5049328;28;20463;-63
2021/06/07 06:08:42;;;;;;;4.75;3.60;;;25.20;52.70;;;;;;5061171;28;20044;-62
2021/06/07 06:11:08;;;;;;;5.18;3.33;;;25.20;52.60;;;;;;5053207;28;20040;-62
2021/06/07 06:13:34;;;;;;;6.28;3.72;;;25.30;52.70;;;;;;5059129;28;20051;-63
2021/06/07 06:16:00;;;;;;;5.70;3.28;;;25.30;52.60;;;;;;5061120;28;20572;-62
2021/06/07 06:18:25;;;;;;;5.30;3.53;;;25.30;52.60;;;;;;5051473;28;20309;-62
2021/06/07 06:20:51;;;;;;;6.15;3.60;;;25.30;52.60;;;;;;5059195;28;20066;-62
2021/06/07 06:23:17;;;;;;;4.53;3.33;;;25.30;52.50;;;;;;5066142;28;20335;-62
2021/06/07 06:25:43;;;;;;;5.00;3.10;;;25.30;52.70;;;;;;5061369;28;20523;-62
2021/06/07 06:28:08;;;;;;;5.10;3.25;;;25.40;52.50;;;;;;5059997;28;20028;-62
2021/06/07 06:30:34;;;;;;;4.35;3.10;;;25.40;52.50;;;;;;5047012;28;20055;-61
2021/06/07 06:33:00;;;;;;;5.70;3.40;;;25.40;52.50;;;;;;5068490;28;20498;-62
2021/06/07 06:35:27;;;;;;;5.00;3.60;;;25.40;52.40;;;;;;5070193;28;20132;-62
2021/06/07 06:37:53;;;;;;;4.53;3.30;;;25.40;52.60;;;;;;5048637;28;20025;-62
2021/06/07 06:40:25;;;;;;;5.20;3.00;;;25.40;53.00;;;;;;5064957;28;20047;-62
2021/06/07 06:42:52;;;;;;;4.00;2.97;;;25.40;52.30;;;;;;5056131;28;20036;-62
2021/06/07 06:45:19;;;;;;;5.00;3.20;;;25.40;52.10;;;;;;5048067;28;20025;-62
2021/06/07 06:47:46;;;;;;;5.47;3.10;;;25.50;52.20;;;;;;5047684;28;20059;-62
2021/06/07 06:50:13;;;;;;;4.20;3.17;;;25.50;52.20;;;;;;5066168;28;20039;-62
2021/06/07 06:52:39;;;;;;;4.57;3.20;;;25.50;52.20;;;;;;5059535;28;20087;-62
2021/06/07 06:55:06;;;;;;;4.07;3.10;;;25.50;52.20;;;;;;5050679;28;20104;-62
2021/06/07 06:57:32;;;;;;;3.63;2.80;;;25.50;52.10;;;;;;5053636;28;20044;-62
2021/06/07 06:59:58;;;;;;;4.78;2.95;;;25.50;51.90;;;;;;5057132;28;20061;-62
2021/06/07 07:02:24;;;;;;;4.63;2.97;;;25.60;52.20;;;;;;5062590;28;20541;-62
2021/06/07 07:04:49;;;;;;;4.78;3.38;;;25.60;52.20;;;;;;5052502;28;20063;-61
2021/06/07 07:07:15;;;;;;;4.13;2.90;;;25.60;52.30;;;;;;5048296;28;20025;-61
2021/06/07 07:09:43;;;;;;;4.13;2.90;;;25.60;52.30;;;;;;5053270;28;20033;-62
2021/06/07 07:12:10;;;;;;;4.25;2.80;;;25.60;52.20;;;;;;5057671;28;20028;-62
2021/06/07 07:14:36;;;;;;;3.78;2.63;;;25.70;52.20;;;;;;5068141;28;20025;-62
2021/06/07 07:17:03;;;;;;;4.18;2.72;;;25.70;52.20;;;;;;5066920;28;20023;-62
2021/06/07 07:19:29;;;;;;;4.43;2.70;;;25.70;52.20;;;;;;5055037;28;20568;-62
2021/06/07 07:21:54;;;;;;;3.78;2.53;;;25.70;52.10;;;;;;5054015;28;20099;-62
2021/06/07 07:24:20;;;;;;;4.05;2.92;;;25.70;52.10;;;;;;5067335;28;20719;-62
2021/06/07 07:26:45;;;;;;;3.67;2.60;;;25.70;52.20;;;;;;5050402;28;20033;-62
2021/06/07 07:29:11;;;;;;;4.13;3.10;;;25.70;52.00;;;;;;5047982;28;20071;-62
2021/06/07 07:31:37;;;;;;;3.58;2.75;;;25.70;52.00;;;;;;5046144;28;20115;-62
2021/06/07 07:34:03;;;;;;;4.38;2.80;;;25.70;51.90;;;;;;5047445;28;20067;-62
2021/06/07 07:36:28;;;;;;;4.57;2.75;;;25.70;51.90;;;;;;5057868;28;20029;-62
2021/06/07 07:38:54;;;;;;;3.60;2.65;;;25.70;51.80;;;;;;5047445;28;20028;-62
2021/06/07 07:41:20;;;;;;;3.85;2.75;;;25.80;51.70;;;;;;5060833;28;20024;-62
2021/06/07 07:43:47;;;;;;;3.70;2.60;;;25.80;51.70;;;;;;5067472;28;20103;-62
2021/06/07 07:46:12;;;;;;;3.17;2.42;;;25.80;51.70;;;;;;5064801;28;20040;-62
2021/06/07 07:48:38;;;;;;;3.40;2.42;;;25.80;51.70;;;;;;5048650;28;20094;-62
2021/06/07 07:51:04;;;;;;;3.88;2.42;;;25.80;51.70;;;;;;5066173;28;20035;-62
2021/06/07 07:53:30;;;;;;;3.67;2.55;;;25.80;51.70;;;;;;5065783;28;20040;-62
2021/06/07 07:55:56;;;;;;;3.90;2.63;;;25.80;51.60;;;;;;5064844;28;20016;-62
2021/06/07 07:58:22;;;;;;;3.78;2.58;;;25.90;51.70;;;;;;5062641;28;20514;-62
2021/06/07 08:00:49;;;;;;;3.90;2.67;;;25.90;51.70;;;;;;5065274;28;20021;-61
2021/06/07 08:03:14;;;;;;;3.28;2.50;;;25.80;51.50;;;;;;5067221;28;20488;-61
2021/06/07 08:05:40;;;;;;;3.28;2.20;;;25.90;51.50;;;;;;5061050;28;20124;-61
2021/06/07 08:08:06;;;;;;;3.30;2.45;;;25.90;51.50;;;;;;5047005;28;20423;-61
2021/06/07 08:10:32;;;;;;;4.15;2.75;;;25.90;52.00;;;;;;5050180;28;20025;-61
2021/06/07 08:12:59;;;;;;;3.70;2.58;;;25.90;51.50;;;;;;5072138;28;20367;-61
2021/06/07 08:15:25;;;;;;;3.53;2.20;;;25.90;51.50;;;;;;5065361;28;20153;-62
2021/06/07 08:17:51;;;;;;;3.40;2.55;;;25.90;51.40;;;;;;5054196;28;20492;-62
2021/06/07 08:20:18;;;;;;;4.18;2.47;;;25.90;51.30;;;;;;5068432;28;20048;-61
2021/06/07 08:22:49;;;;;;;3.40;2.50;;;26.00;51.40;;;;;;5071398;28;20166;-62
2021/06/07 08:25:16;;;;;;;3.13;2.28;;;26.00;51.30;;;;;;5066608;28;20043;-62
2021/06/07 08:27:42;;;;;;;3.13;2.40;;;26.00;51.30;;;;;;5069497;28;20040;-62
2021/06/07 08:30:09;;;;;;;3.58;2.15;;;26.10;51.30;;;;;;5070269;28;20753;-62
2021/06/07 08:32:36;;;;;;;3.40;2.40;;;26.00;51.20;;;;;;5070566;28;20062;-63
2021/06/07 08:35:04;;;;;;;3.90;2.55;;;26.10;51.20;;;;;;5065745;28;20021;-62
2021/06/07 08:37:30;;;;;;;2.80;2.10;;;26.10;51.10;;;;;;5048932;28;20183;-62
2021/06/07 08:39:55;;;;;;;2.60;1.90;;;26.10;51.10;;;;;;5053737;28;20472;-62
2021/06/07 08:42:21;;;;;;;3.33;2.20;;;26.10;51.50;;;;;;5070965;28;20344;-62
2021/06/07 08:44:47;;;;;;;3.38;2.30;;;26.10;51.00;;;;;;5064685;28;21001;-62
2021/06/07 08:47:12;;;;;;;2.80;2.20;;;26.20;51.10;;;;;;5061716;28;20416;-62
2021/06/07 08:49:39;;;;;;;2.90;2.15;;;26.20;50.90;;;;;;5070718;28;20044;-62
2021/06/07 08:52:05;;;;;;;2.97;2.03;;;26.20;51.00;;;;;;5068129;28;20023;-62
2021/06/07 08:54:32;;;;;;;3.03;2.10;;;26.20;50.90;;;;;;5070646;28;20225;-62
2021/06/07 08:56:58;;;;;;;3.28;2.17;;;26.20;50.90;;;;;;5054141;28;20024;-61
2021/06/07 08:59:24;;;;;;;2.75;2.00;;;26.20;50.80;;;;;;5053185;28;20112;-62
2021/06/07 09:01:54;;;;;;;2.60;1.90;;;26.20;50.90;;;;;;5058932;28;20128;-62
2021/06/07 09:04:21;;;;;;;3.08;2.10;;;26.30;50.90;;;;;;5048993;28;20044;-62
2021/06/07 09:06:48;;;;;;;2.53;2.05;;;26.30;50.80;;;;;;5063313;28;20118;-62
2021/06/07 09:09:16;;;;;;;3.03;2.20;;;26.30;50.80;;;;;;5061262;28;20573;-62
2021/06/07 09:11:56;;;;;;;2.85;2.05;;;26.30;50.80;;;;;;5063943;28;20067;-62
2021/06/07 09:14:34;;;;;;;3.15;2.20;;;26.30;50.80;;;;;;5062188;28;20028;-62
2021/06/07 09:17:00;;;;;;;2.95;2.20;;;26.30;50.70;;;;;;5063398;28;20025;-62
2021/06/07 09:19:30;;;;;;;2.70;2.00;;;26.30;50.70;;;;;;5066886;28;20475;-62
2021/06/07 09:22:26;;;;;;;2.88;2.15;;;26.30;50.70;;;;;;5063304;28;20475;-62
2021/06/07 09:25:04;;;;;;;2.83;2.03;;;26.30;50.70;;;;;;5068093;28;20081;-62
2021/06/07 09:27:30;;;;;;;3.63;2.10;;;26.30;50.70;;;;;;5069117;28;20089;-62
2021/06/07 09:29:56;;;;;;;2.75;2.10;;;26.40;50.80;;;;;;5068350;28;20032;-61
2021/06/07 09:32:21;;;;;;;2.80;2.10;;;26.40;50.70;;;;;;5066470;28;20043;-62
2021/06/07 09:35:07;;;;;;;3.85;2.20;;;26.40;50.70;;;;;;5061023;28;20076;-62
2021/06/07 09:37:32;;;;;;;2.70;2.10;;;26.40;50.70;;;;;;5061746;28;20025;-62
2021/06/07 09:40:19;;;;;;;2.72;2.10;;;26.40;50.60;;;;;;5061983;28;20025;-61
2021/06/07 09:42:56;;;;;;;2.90;2.20;;;26.40;50.60;;;;;;5054797;28;20028;-61
2021/06/07 09:45:44;;;;;;;2.80;2.13;;;26.40;50.60;;;;;;5059740;28;20106;-61
2021/06/07 09:48:15;;;;;;;3.13;2.10;;;26.40;50.60;;;;;;5049091;28;20086;-62
2021/06/07 09:50:56;;;;;;;2.70;2.03;;;26.40;50.60;;;;;;5053028;28;20119;-61
2021/06/07 09:53:42;;;;;;;2.63;1.90;;;26.40;50.50;;;;;;5059712;28;20083;-62
2021/06/07 09:56:09;;;;;;;2.55;1.80;;;26.40;50.60;;;;;;5064676;28;20134;-61
2021/06/07 09:58:40;;;;;;;2.70;1.70;;;26.40;51.00;;;;;;5061575;28;20029;-62
2021/06/07 10:01:27;;;;;;;2.67;2.13;;;26.50;50.50;;;;;;5047129;28;20033;-62
2021/06/07 10:03:55;;;;;;;2.60;2.00;;;26.40;50.40;;;;;;5058640;28;20081;-62
2021/06/07 10:06:30;;;;;;;1.98;1.70;;;26.50;50.40;;;;;;5050767;28;20040;-61
2021/06/07 10:08:59;;;;;;;2.30;1.70;;;26.50;50.50;;;;;;5060675;28;20502;-62
2021/06/07 10:11:33;;;;;;;2.67;2.00;;;26.50;50.50;;;;;;5058229;28;20024;-61
2021/06/07 10:14:18;;;;;;;2.65;1.90;;;26.50;50.40;;;;;;5058280;28;20164;-62
2021/06/07 10:16:59;;;;;;;2.63;1.90;;;26.50;50.40;;;;;;5057917;28;20415;-62
2021/06/07 10:19:34;;;;;;;2.65;1.83;;;26.50;50.40;;;;;;5069355;28;20459;-63
2021/06/07 10:22:02;;;;;;;2.53;1.80;;;26.50;50.40;;;;;;5064000;28;20022;-63
2021/06/07 10:24:27;;;;;;;2.35;1.80;;;26.50;50.30;;;;;;5056402;28;20040;-62
2021/06/07 10:26:53;;;;;;;2.40;1.75;;;26.50;50.30;;;;;;5055351;28;20480;-63
2021/06/07 10:29:20;;;;;;;2.22;1.70;;;26.50;50.40;;;;;;5061728;28;20551;-62
2021/06/07 10:31:46;;;;;;;2.70;1.83;;;26.50;50.30;;;;;;5060195;28;20127;-62
2021/06/07 10:34:12;;;;;;;2.53;1.70;;;26.50;50.20;;;;;;5051544;28;20040;-62
2021/06/07 10:36:50;;;;;;;1.83;1.40;;;26.50;50.20;;;;;;5054817;28;20029;-62
2021/06/07 10:39:20;;;;;;;2.90;1.70;;;26.50;50.00;;;;;;5048169;28;20053;-63
2021/06/07 10:42:07;;;;;;;2.20;1.60;;;26.60;50.10;;;;;;5046822;28;20028;-64
2021/06/07 10:44:34;;;;;;;3.20;2.20;;;26.60;50.20;;;;;;5056385;28;20105;-63
2021/06/07 10:47:05;;;;;;;3.25;2.50;;;26.60;50.10;;;;;;5049138;28;20029;-64
2021/06/07 10:49:39;;;;;;;3.20;2.53;;;26.60;50.20;;;;;;5056451;28;20570;-63
2021/06/07 10:52:20;;;;;;;3.33;2.50;;;26.60;50.10;;;;;;5060981;28;20029;-64
2021/06/07 10:55:00;;;;;;;3.08;2.25;;;26.60;50.10;;;;;;5065315;28;20115;-63
2021/06/07 10:57:26;;;;;;;4.18;2.10;;;26.60;50.20;;;;;;5061782;28;20091;-64
2021/06/07 11:00:00;;;;;;;2.80;1.90;;;26.60;50.20;;;;;;5065576;28;20479;-63
2021/06/07 11:02:34;;;;;;;2.33;1.70;;;26.60;50.20;;;;;;5060967;28;20448;-63
2021/06/07 11:05:21;;;;;;;2.95;1.90;;;26.60;50.20;;;;;;5056032;28;20028;-62
2021/06/07 11:08:04;;;;;;;2.15;1.60;;;26.60;50.30;;;;;;5062195;28;20037;-63
2021/06/07 11:10:40;;;;;;;2.55;1.60;;;26.60;50.10;;;;;;5057016;28;21025;-64
2021/06/07 11:13:34;;;;;;;4.38;1.70;;;26.70;50.20;;;;;;5055761;28;20025;-64
2021/06/07 11:16:02;;;;;;;1.90;1.50;;;26.70;50.10;;;;;;5054915;28;20334;-62
2021/06/07 11:18:30;;;;;;;2.50;1.60;;;26.70;50.20;;;;;;5048841;28;20460;-65
2021/06/07 11:20:59;;;;;;;3.20;1.70;;;26.70;50.20;;;;;;5052018;28;20021;-65
2021/06/07 11:23:36;;;;;;;2.85;1.65;;;26.70;50.20;;;;;;5057170;28;20099;-63
2021/06/07 11:26:10;;;;;;;2.25;1.50;;;26.70;50.20;;;;;;5061021;28;20032;-63
2021/06/07 11:29:04;;;;;;;2.70;1.30;;;26.70;50.20;;;;;;5064404;28;20089;-64
2021/06/07 11:31:32;;;;;;;2.42;1.45;;;26.70;50.20;;;;;;5052005;28;20064;-64
2021/06/07 11:34:10;;;;;;;2.03;1.50;;;26.70;50.20;;;;;;5059770;28;20039;-64
2021/06/07 11:36:42;;;;;;;2.05;1.35;;;26.70;50.70;;;;;;5061644;28;20440;-64
2021/06/07 11:39:16;;;;;;;1.90;1.20;;;26.70;50.00;;;;;;5054985;28;20039;-64
2021/06/07 11:41:53;;;;;;;1.90;1.30;;;26.70;50.00;;;;;;5050134;28;20052;-64
2021/06/07 11:44:39;;;;;;;1.95;1.30;;;26.70;50.00;;;;;;5066226;28;20500;-64
2021/06/07 11:47:05;;;;;;;1.63;1.23;;;26.70;50.00;;;;;;5074340;28;20501;-63
2021/06/07 11:49:31;;;;;;;2.00;1.30;;;26.70;50.10;;;;;;5058661;28;20113;-63
2021/06/07 11:52:03;;;;;;;1.88;1.27;;;26.70;50.00;;;;;;5060421;28;20048;-63
2021/06/07 11:54:29;;;;;;;1.85;1.30;;;26.70;50.00;;;;;;5069963;28;20031;-63
2021/06/07 11:56:58;;;;;;;1.92;1.20;;;26.70;50.00;;;;;;5068425;28;20456;-63
2021/06/07 11:59:25;;;;;;;;;;;26.70;49.90;;;;;;5056525;28;20025;-63
2021/06/07 12:01:51;;;;;;;1.40;1.10;;;26.70;49.90;;;;;;5068815;28;19923;-63
2021/06/07 12:04:33;;;;;;;1.50;1.13;;;26.80;50.00;;;;;;5071099;28;20055;-64
2021/06/07 12:07:10;;;;;;;1.38;1.10;;;26.80;50.00;;;;;;5068714;28;20518;-64
2021/06/07 12:09:38;;;;;;;1.67;1.20;;;26.80;50.00;;;;;;5070655;28;20025;-63
2021/06/07 12:12:05;;;;;;;1.65;1.17;;;26.80;50.40;;;;;;5067033;28;20682;-62
2021/06/07 12:14:34;;;;;;;1.30;1.10;;;26.80;49.90;;;;;;5063879;28;20529;-61
2021/06/07 12:17:19;;;;;;;1.43;1.00;;;26.80;49.90;;;;;;5048414;28;20174;-62
2021/06/07 12:20:00;;;;;;;2.05;1.20;;;26.80;49.90;;;;;;5059314;28;20028;-61
2021/06/07 12:22:30;;;;;;;1.75;1.10;;;26.80;49.90;;;;;;5068513;28;20074;-60
2021/06/07 12:25:12;;;;;;;1.05;0.93;;;26.80;50.00;;;;;;5070667;28;20029;-63
2021/06/07 12:30:21;;;;;;;1.45;1.10;;;26.80;49.90;;;;;;5066049;28;20134;-62
2021/06/07 12:32:49;;;;;;;1.38;1.08;;;26.80;49.90;;;;;;5059067;28;20037;-62
2021/06/07 12:35:16;;;;;;;1.48;1.10;;;26.90;50.00;;;;;;5068217;28;20780;-62
2021/06/07 12:37:45;;;;;;;1.10;0.93;;;26.90;50.00;;;;;;5050025;28;20208;-61
2021/06/07 12:40:19;;;;;;;1.55;1.13;;;26.90;50.00;;;;;;5058462;28;20094;-63
2021/06/07 12:42:50;;;;;;;1.38;1.13;;;26.90;50.00;;;;;;5053306;28;20072;-62
2021/06/07 12:45:22;;;;;;;1.70;1.20;;;26.90;50.00;;;;;;5066785;28;20039;-61
2021/06/07 12:47:48;;;;;;;1.23;1.00;;;26.90;49.90;;;;;;5064243;28;20090;-61
2021/06/07 12:50:25;;;;;;;1.23;1.00;;;26.90;49.90;;;;;;5049336;28;20118;-61
2021/06/07 12:52:56;;;;;;;1.30;1.00;;;26.90;49.90;;;;;;5050832;28;20029;-61
2021/06/07 12:55:29;;;;;;;1.15;1.00;;;26.90;49.80;;;;;;5048760;28;20151;-61
2021/06/07 12:57:56;;;;;;;1.40;1.02;;;26.90;49.90;;;;;;5062959;28;20127;-62